sensor_id;sensor_type;location;lat;lon;timestamp;pressure;altitude;pressure_sealevel;temperature;humidity
81686;BME280;71102;50.960;6.888;2023-08-20T00:00:38;101574.44;;;22.23;77.50
81686;BME280;71102;50.960;6.888;2023-08-20T00:03:10;101579.06;;;22.19;77.70
81686;BME280;71102;50.960;6.888;2023-08-20T00:05:37;101587.25;;;22.16;77.53
81686;BME280;71102;50.960;6.888;2023-08-20T00:08:02;101580.19;;;22.12;77.66
81686;BME280;71102;50.960;6.888;2023-08-20T00:10:28;101576.75;;;22.06;77.89
81686;BME280;71102;50.960;6.888;2023-08-20T00:12:53;101582.09;;;22.07;77.92
81686;BME280;71102;50.960;6.888;2023-08-20T00:15:18;101587.38;;;22.12;77.98
81686;BME280;71102;50.960;6.888;2023-08-20T00:17:44;101578.25;;;22.16;78.19
81686;BME280;71102;50.960;6.888;2023-08-20T00:20:10;101585.44;;;22.17;78.00
81686;BME280;71102;50.960;6.888;2023-08-20T00:22:36;101590.97;;;22.12;78.01
81686;BME280;71102;50.960;6.888;2023-08-20T00:25:02;101583.16;;;22.02;78.60
81686;BME280;71102;50.960;6.888;2023-08-20T00:27:28;101595.69;;;22.04;78.46
81686;BME280;71102;50.960;6.888;2023-08-20T00:29:53;101595.72;;;22.03;78.46
81686;BME280;71102;50.960;6.888;2023-08-20T00:32:19;101594.09;;;21.97;78.41
81686;BME280;71102;50.960;6.888;2023-08-20T00:34:44;101596.91;;;21.93;78.54
81686;BME280;71102;50.960;6.888;2023-08-20T00:37:10;101593.34;;;21.92;78.66
81686;BME280;71102;50.960;6.888;2023-08-20T00:39:36;101594.25;;;21.91;78.65
81686;BME280;71102;50.960;6.888;2023-08-20T00:42:01;101596.09;;;21.91;78.56
81686;BME280;71102;50.960;6.888;2023-08-20T00:44:27;101590.69;;;21.91;78.80
81686;BME280;71102;50.960;6.888;2023-08-20T00:46:52;101589.75;;;21.92;78.55
81686;BME280;71102;50.960;6.888;2023-08-20T00:49:18;101597.84;;;21.92;78.30
81686;BME280;71102;50.960;6.888;2023-08-20T00:51:44;101594.25;;;21.91;78.27
81686;BME280;71102;50.960;6.888;2023-08-20T00:54:10;101592.53;;;21.89;78.28
81686;BME280;71102;50.960;6.888;2023-08-20T00:56:36;101591.69;;;21.87;78.49
81686;BME280;71102;50.960;6.888;2023-08-20T00:59:04;101592.69;;;21.83;78.55
81686;BME280;71102;50.960;6.888;2023-08-20T01:01:30;101586.53;;;21.78;78.60
81686;BME280;71102;50.960;6.888;2023-08-20T01:03:55;101582.16;;;21.74;78.73
81686;BME280;71102;50.960;6.888;2023-08-20T01:09:27;101580.41;;;21.73;78.60
81686;BME280;71102;50.960;6.888;2023-08-20T01:12:02;101576.81;;;21.71;78.60
81686;BME280;71102;50.960;6.888;2023-08-20T01:14:28;101567.06;;;21.65;78.72
81686;BME280;71102;50.960;6.888;2023-08-20T01:16:54;101554.59;;;21.61;78.90
81686;BME280;71102;50.960;6.888;2023-08-20T01:19:21;101545.69;;;21.58;78.96
81686;BME280;71102;50.960;6.888;2023-08-20T01:25:05;101546.78;;;21.51;78.88
81686;BME280;71102;50.960;6.888;2023-08-20T01:30:20;101573.22;;;21.37;79.53
81686;BME280;71102;50.960;6.888;2023-08-20T01:32:48;101580.47;;;21.33;79.52
81686;BME280;71102;50.960;6.888;2023-08-20T01:35:16;101578.00;;;21.26;79.74
81686;BME280;71102;50.960;6.888;2023-08-20T01:37:41;101583.44;;;21.24;79.82
81686;BME280;71102;50.960;6.888;2023-08-20T01:40:08;101576.38;;;21.19;79.66
81686;BME280;71102;50.960;6.888;2023-08-20T01:42:34;101576.50;;;21.14;79.70
81686;BME280;71102;50.960;6.888;2023-08-20T01:44:59;101588.31;;;21.09;79.49
81686;BME280;71102;50.960;6.888;2023-08-20T01:47:24;101588.56;;;20.98;80.52
81686;BME280;71102;50.960;6.888;2023-08-20T01:49:51;101584.16;;;20.94;80.42
81686;BME280;71102;50.960;6.888;2023-08-20T01:52:16;101587.78;;;20.93;80.54
81686;BME280;71102;50.960;6.888;2023-08-20T01:54:42;101589.56;;;20.93;80.86
81686;BME280;71102;50.960;6.888;2023-08-20T01:57:07;101593.25;;;20.89;81.34
81686;BME280;71102;50.960;6.888;2023-08-20T01:59:32;101593.19;;;20.92;80.81
81686;BME280;71102;50.960;6.888;2023-08-20T02:01:58;101596.72;;;20.95;80.37
81686;BME280;71102;50.960;6.888;2023-08-20T02:04:23;101595.72;;;20.99;80.60
81686;BME280;71102;50.960;6.888;2023-08-20T02:06:48;101599.28;;;21.00;80.43
81686;BME280;71102;50.960;6.888;2023-08-20T02:09:14;101599.28;;;21.00;80.28
81686;BME280;71102;50.960;6.888;2023-08-20T02:11:40;101603.69;;;21.04;80.30
81686;BME280;71102;50.960;6.888;2023-08-20T02:14:05;101591.16;;;21.03;79.79
81686;BME280;71102;50.960;6.888;2023-08-20T02:16:31;101595.59;;;21.04;80.37
81686;BME280;71102;50.960;6.888;2023-08-20T02:18:56;101599.16;;;21.06;79.94
81686;BME280;71102;50.960;6.888;2023-08-20T02:21:22;101600.88;;;21.08;79.88
81686;BME280;71102;50.960;6.888;2023-08-20T02:23:47;101607.09;;;21.12;79.57
81686;BME280;71102;50.960;6.888;2023-08-20T02:26:12;101607.91;;;21.15;79.65
81686;BME280;71102;50.960;6.888;2023-08-20T02:28:38;101605.16;;;21.17;79.55
81686;BME280;71102;50.960;6.888;2023-08-20T02:31:04;101603.34;;;21.19;79.38
81686;BME280;71102;50.960;6.888;2023-08-20T02:33:30;101612.28;;;21.19;79.51
81686;BME280;71102;50.960;6.888;2023-08-20T02:35:55;101608.63;;;21.22;79.69
81686;BME280;71102;50.960;6.888;2023-08-20T02:38:21;101611.31;;;21.22;79.30
81686;BME280;71102;50.960;6.888;2023-08-20T02:40:46;101614.94;;;21.21;79.39
81686;BME280;71102;50.960;6.888;2023-08-20T02:43:12;101617.66;;;21.21;79.49
81686;BME280;71102;50.960;6.888;2023-08-20T02:45:41;101637.44;;;21.20;79.61
81686;BME280;71102;50.960;6.888;2023-08-20T02:48:07;101635.69;;;21.19;79.86
81686;BME280;71102;50.960;6.888;2023-08-20T02:50:32;101645.59;;;21.17;79.42
81686;BME280;71102;50.960;6.888;2023-08-20T02:52:58;101637.50;;;21.17;79.92
81686;BME280;71102;50.960;6.888;2023-08-20T02:55:23;101639.28;;;21.18;79.66
81686;BME280;71102;50.960;6.888;2023-08-20T02:57:48;101628.53;;;21.16;80.14
81686;BME280;71102;50.960;6.888;2023-08-20T03:00:14;101623.13;;;21.16;80.42
81686;BME280;71102;50.960;6.888;2023-08-20T03:02:39;101619.59;;;21.16;80.77
81686;BME280;71102;50.960;6.888;2023-08-20T03:05:05;101623.09;;;21.18;80.47
81686;BME280;71102;50.960;6.888;2023-08-20T03:07:30;101636.50;;;21.21;80.31
81686;BME280;71102;50.960;6.888;2023-08-20T03:09:56;101648.16;;;21.23;80.06
81686;BME280;71102;50.960;6.888;2023-08-20T03:12:21;101638.28;;;21.22;80.42
81686;BME280;71102;50.960;6.888;2023-08-20T03:14:47;101637.38;;;21.23;80.43
81686;BME280;71102;50.960;6.888;2023-08-20T03:17:12;101642.78;;;21.23;80.02
81686;BME280;71102;50.960;6.888;2023-08-20T03:19:53;101649.00;;;21.25;80.03
81686;BME280;71102;50.960;6.888;2023-08-20T03:22:19;101641.78;;;21.27;80.37
81686;BME280;71102;50.960;6.888;2023-08-20T03:24:45;101637.25;;;21.29;80.12
81686;BME280;71102;50.960;6.888;2023-08-20T03:27:10;101639.06;;;21.27;80.18
81686;BME280;71102;50.960;6.888;2023-08-20T03:29:35;101636.41;;;21.25;79.77
81686;BME280;71102;50.960;6.888;2023-08-20T03:32:01;101646.38;;;21.22;80.42
81686;BME280;71102;50.960;6.888;2023-08-20T03:34:26;101647.25;;;21.22;80.46
81686;BME280;71102;50.960;6.888;2023-08-20T03:36:51;101639.22;;;21.21;80.57
81686;BME280;71102;50.960;6.888;2023-08-20T03:39:17;101642.00;;;21.16;81.15
81686;BME280;71102;50.960;6.888;2023-08-20T03:41:42;101648.28;;;21.17;80.80
81686;BME280;71102;50.960;6.888;2023-08-20T03:44:07;101650.06;;;21.18;80.27
81686;BME280;71102;50.960;6.888;2023-08-20T03:46:32;101653.75;;;21.14;80.70
81686;BME280;71102;50.960;6.888;2023-08-20T03:48:58;101662.00;;;21.06;81.37
81686;BME280;71102;50.960;6.888;2023-08-20T03:51:23;101662.97;;;21.04;81.05
81686;BME280;71102;50.960;6.888;2023-08-20T03:53:49;101661.22;;;21.03;81.54
81686;BME280;71102;50.960;6.888;2023-08-20T03:56:14;101661.22;;;21.03;81.16
81686;BME280;71102;50.960;6.888;2023-08-20T03:58:39;101670.22;;;21.02;81.39
81686;BME280;71102;50.960;6.888;2023-08-20T04:01:05;101672.06;;;21.00;81.31
81686;BME280;71102;50.960;6.888;2023-08-20T04:03:30;101666.66;;;21.00;81.88
81686;BME280;71102;50.960;6.888;2023-08-20T04:05:55;101670.22;;;21.02;81.07
81686;BME280;71102;50.960;6.888;2023-08-20T04:08:21;101678.28;;;21.03;81.30
81686;BME280;71102;50.960;6.888;2023-08-20T04:10:46;101679.13;;;21.04;81.02
81686;BME280;71102;50.960;6.888;2023-08-20T04:13:12;101684.50;;;21.05;80.74
81686;BME280;71102;50.960;6.888;2023-08-20T04:15:37;101691.56;;;21.11;81.04
81686;BME280;71102;50.960;6.888;2023-08-20T04:18:03;101683.50;;;21.09;81.21
81686;BME280;71102;50.960;6.888;2023-08-20T04:20:29;101681.78;;;21.07;80.93
81686;BME280;71102;50.960;6.888;2023-08-20T04:22:54;101690.78;;;21.06;80.95
81686;BME280;71102;50.960;6.888;2023-08-20T04:25:20;101684.59;;;21.01;80.73
81686;BME280;71102;50.960;6.888;2023-08-20T04:27:46;101681.94;;;20.99;81.21
81686;BME280;71102;50.960;6.888;2023-08-20T04:30:12;101688.22;;;21.00;80.74
81686;BME280;71102;50.960;6.888;2023-08-20T04:32:37;101672.94;;;21.00;80.51
81686;BME280;71102;50.960;6.888;2023-08-20T04:35:03;101675.69;;;20.99;80.70
81686;BME280;71102;50.960;6.888;2023-08-20T04:37:28;101684.66;;;20.98;80.47
81686;BME280;71102;50.960;6.888;2023-08-20T04:39:55;101702.72;;;20.93;80.87
81686;BME280;71102;50.960;6.888;2023-08-20T04:42:22;101709.06;;;20.90;81.15
81686;BME280;71102;50.960;6.888;2023-08-20T04:44:47;101702.00;;;20.85;81.01
81686;BME280;71102;50.960;6.888;2023-08-20T04:47:14;101695.81;;;20.80;81.37
81686;BME280;71102;50.960;6.888;2023-08-20T04:49:39;101694.88;;;20.81;81.32
81686;BME280;71102;50.960;6.888;2023-08-20T04:52:05;101698.47;;;20.81;81.38
81686;BME280;71102;50.960;6.888;2023-08-20T04:54:30;101695.72;;;20.84;81.06
81686;BME280;71102;50.960;6.888;2023-08-20T04:56:56;101709.13;;;20.87;80.61
81686;BME280;71102;50.960;6.888;2023-08-20T04:59:22;101706.41;;;20.89;80.47
81686;BME280;71102;50.960;6.888;2023-08-20T05:01:51;101709.94;;;20.91;80.49
81686;BME280;71102;50.960;6.888;2023-08-20T05:04:20;101712.59;;;20.94;80.69
81686;BME280;71102;50.960;6.888;2023-08-20T05:06:45;101703.63;;;20.95;80.08
81686;BME280;71102;50.960;6.888;2023-08-20T05:09:11;101702.72;;;20.94;80.36
81686;BME280;71102;50.960;6.888;2023-08-20T05:11:36;101708.09;;;20.93;80.42
81686;BME280;71102;50.960;6.888;2023-08-20T05:14:01;101709.03;;;20.93;80.71
81686;BME280;71102;50.960;6.888;2023-08-20T05:16:27;101713.47;;;20.96;80.43
81686;BME280;71102;50.960;6.888;2023-08-20T05:18:52;101708.00;;;20.99;80.62
81686;BME280;71102;50.960;6.888;2023-08-20T05:21:17;101699.84;;;21.03;80.35
81686;BME280;71102;50.960;6.888;2023-08-20T05:23:43;101706.09;;;21.04;80.23
81686;BME280;71102;50.960;6.888;2023-08-20T05:26:08;101706.09;;;21.04;79.96
81686;BME280;71102;50.960;6.888;2023-08-20T05:28:34;101710.66;;;21.02;80.01
81686;BME280;71102;50.960;6.888;2023-08-20T05:31:00;101711.72;;;20.92;80.68
81686;BME280;71102;50.960;6.888;2023-08-20T05:33:25;101717.09;;;20.95;80.39
81686;BME280;71102;50.960;6.888;2023-08-20T05:35:51;101712.53;;;20.97;80.33
81686;BME280;71102;50.960;6.888;2023-08-20T05:38:17;101708.88;;;20.99;80.14
81686;BME280;71102;50.960;6.888;2023-08-20T05:40:44;101716.88;;;21.04;80.24
81686;BME280;71102;50.960;6.888;2023-08-20T05:43:10;101709.59;;;21.09;79.96
81686;BME280;71102;50.960;6.888;2023-08-20T05:45:35;101720.19;;;21.16;79.94
81686;BME280;71102;50.960;6.888;2023-08-20T05:48:01;101724.53;;;21.22;79.50
81686;BME280;71102;50.960;6.888;2023-08-20T05:50:26;101728.97;;;21.26;79.38
81686;BME280;71102;50.960;6.888;2023-08-20T05:52:52;101723.63;;;21.23;78.80
81686;BME280;71102;50.960;6.888;2023-08-20T05:55:17;101718.28;;;21.21;79.43
81686;BME280;71102;50.960;6.888;2023-08-20T05:57:43;101723.56;;;21.26;78.96
81686;BME280;71102;50.960;6.888;2023-08-20T06:00:10;101721.72;;;21.28;79.28
81686;BME280;71102;50.960;6.888;2023-08-20T06:02:39;101720.84;;;21.27;79.18
81686;BME280;71102;50.960;6.888;2023-08-20T06:05:05;101718.94;;;21.31;78.46
81686;BME280;71102;50.960;6.888;2023-08-20T06:07:30;101720.91;;;21.24;78.71
81686;BME280;71102;50.960;6.888;2023-08-20T06:09:56;101727.38;;;21.17;78.99
81686;BME280;71102;50.960;6.888;2023-08-20T06:12:22;101723.63;;;21.23;78.84
81686;BME280;71102;50.960;6.888;2023-08-20T06:14:47;101725.41;;;21.24;79.06
81686;BME280;71102;50.960;6.888;2023-08-20T06:17:13;101728.81;;;21.32;78.88
81686;BME280;71102;50.960;6.888;2023-08-20T06:19:38;101730.63;;;21.31;78.57
81686;BME280;71102;50.960;6.888;2023-08-20T06:22:03;101728.72;;;21.35;78.37
81686;BME280;71102;50.960;6.888;2023-08-20T06:24:29;101732.22;;;21.40;78.08
81686;BME280;71102;50.960;6.888;2023-08-20T06:26:54;101728.88;;;21.30;78.52
81686;BME280;71102;50.960;6.888;2023-08-20T06:29:19;101731.38;;;21.38;78.64
81686;BME280;71102;50.960;6.888;2023-08-20T06:31:45;101738.31;;;21.48;78.10
81686;BME280;71102;50.960;6.888;2023-08-20T06:34:10;101739.19;;;21.50;77.74
81686;BME280;71102;50.960;6.888;2023-08-20T06:36:35;101728.16;;;21.59;77.78
81686;BME280;71102;50.960;6.888;2023-08-20T06:39:01;101730.88;;;21.57;78.22
81686;BME280;71102;50.960;6.888;2023-08-20T06:41:27;101737.06;;;21.62;78.15
81686;BME280;71102;50.960;6.888;2023-08-20T06:43:52;101734.31;;;21.65;78.30
81686;BME280;71102;50.960;6.888;2023-08-20T06:46:17;101736.91;;;21.70;78.15
81686;BME280;71102;50.960;6.888;2023-08-20T06:48:43;101735.00;;;21.75;78.16
81686;BME280;71102;50.960;6.888;2023-08-20T06:51:14;101730.34;;;21.81;78.04
81686;BME280;71102;50.960;6.888;2023-08-20T06:53:39;101732.06;;;21.85;77.60
81686;BME280;71102;50.960;6.888;2023-08-20T06:56:05;101729.31;;;21.87;77.72
81686;BME280;71102;50.960;6.888;2023-08-20T06:58:30;101732.69;;;21.95;77.58
81686;BME280;71102;50.960;6.888;2023-08-20T07:00:55;101742.44;;;22.00;77.32
81686;BME280;71102;50.960;6.888;2023-08-20T07:03:21;101748.47;;;22.10;77.30
81686;BME280;71102;50.960;6.888;2023-08-20T07:05:46;101742.84;;;22.19;76.90
81686;BME280;71102;50.960;6.888;2023-08-20T07:08:11;101738.25;;;22.24;77.21
81686;BME280;71102;50.960;6.888;2023-08-20T07:10:37;101740.63;;;22.34;76.50
81686;BME280;71102;50.960;6.888;2023-08-20T07:13:02;101746.78;;;22.41;76.84
81686;BME280;71102;50.960;6.888;2023-08-20T07:15:29;101745.91;;;22.39;76.03
81686;BME280;71102;50.960;6.888;2023-08-20T07:17:54;101744.16;;;22.38;76.49
81686;BME280;71102;50.960;6.888;2023-08-20T07:20:20;101751.47;;;22.33;76.94
81686;BME280;71102;50.960;6.888;2023-08-20T07:22:45;101754.22;;;22.31;76.90
81686;BME280;71102;50.960;6.888;2023-08-20T07:25:10;101750.81;;;22.25;77.38
81686;BME280;71102;50.960;6.888;2023-08-20T07:27:35;101744.81;;;22.14;77.70
81686;BME280;71102;50.960;6.888;2023-08-20T07:30:01;101747.91;;;21.97;77.83
81686;BME280;71102;50.960;6.888;2023-08-20T07:32:26;101755.56;;;22.15;77.96
81686;BME280;71102;50.960;6.888;2023-08-20T07:34:52;101755.38;;;22.21;77.12
81686;BME280;71102;50.960;6.888;2023-08-20T07:37:17;101749.94;;;22.23;77.35
81686;BME280;71102;50.960;6.888;2023-08-20T07:39:42;101747.16;;;22.26;77.62
81686;BME280;71102;50.960;6.888;2023-08-20T07:42:08;101751.38;;;22.37;77.37
81686;BME280;71102;50.960;6.888;2023-08-20T07:44:33;101746.84;;;22.38;77.07
81686;BME280;71102;50.960;6.888;2023-08-20T07:46:58;101751.31;;;22.39;76.91
81686;BME280;71102;50.960;6.888;2023-08-20T07:49:23;101740.28;;;22.48;76.68
81686;BME280;71102;50.960;6.888;2023-08-20T07:51:49;101740.03;;;22.57;76.45
81686;BME280;71102;50.960;6.888;2023-08-20T07:54:14;101747.94;;;22.64;75.71
81686;BME280;71102;50.960;6.888;2023-08-20T07:56:40;101746.06;;;22.68;75.65
81686;BME280;71102;50.960;6.888;2023-08-20T07:59:05;101750.44;;;22.72;75.69
81686;BME280;71102;50.960;6.888;2023-08-20T08:01:30;101749.25;;;22.82;75.53
81686;BME280;71102;50.960;6.888;2023-08-20T08:03:55;101746.25;;;22.91;75.80
81686;BME280;71102;50.960;6.888;2023-08-20T08:06:21;101753.25;;;22.98;75.09
81686;BME280;71102;50.960;6.888;2023-08-20T08:08:46;101757.91;;;22.93;74.89
81686;BME280;71102;50.960;6.888;2023-08-20T08:11:12;101752.25;;;23.02;74.64
81686;BME280;71102;50.960;6.888;2023-08-20T08:13:37;101757.50;;;23.07;75.12
81686;BME280;71102;50.960;6.888;2023-08-20T08:16:02;101755.78;;;23.04;74.60
81686;BME280;71102;50.960;6.888;2023-08-20T08:18:28;101755.56;;;23.12;74.49
81686;BME280;71102;50.960;6.888;2023-08-20T08:20:53;101762.56;;;23.19;74.58
81686;BME280;71102;50.960;6.888;2023-08-20T08:23:19;101759.56;;;23.29;74.02
81686;BME280;71102;50.960;6.888;2023-08-20T08:25:44;101763.75;;;23.39;73.69
81686;BME280;71102;50.960;6.888;2023-08-20T08:28:09;101760.19;;;23.39;73.16
81686;BME280;71102;50.960;6.888;2023-08-20T08:30:35;101761.75;;;23.46;73.57
81686;BME280;71102;50.960;6.888;2023-08-20T08:33:00;101765.19;;;23.51;73.56
81686;BME280;71102;50.960;6.888;2023-08-20T08:35:25;101760.31;;;23.63;73.14
81686;BME280;71102;50.960;6.888;2023-08-20T08:37:51;101766.28;;;23.73;72.46
81686;BME280;71102;50.960;6.888;2023-08-20T08:40:16;101759.97;;;23.72;72.32
81686;BME280;71102;50.960;6.888;2023-08-20T08:42:42;101764.91;;;23.87;72.28
81686;BME280;71102;50.960;6.888;2023-08-20T08:45:09;101763.66;;;23.99;71.19
81686;BME280;71102;50.960;6.888;2023-08-20T08:47:35;101765.44;;;24.00;70.01
81686;BME280;71102;50.960;6.888;2023-08-20T08:50:01;101761.56;;;24.07;70.36
81686;BME280;71102;50.960;6.888;2023-08-20T08:52:27;101767.66;;;24.13;70.63
81686;BME280;71102;50.960;6.888;2023-08-20T08:54:53;101765.59;;;24.21;70.12
81686;BME280;71102;50.960;6.888;2023-08-20T08:57:18;101759.69;;;24.09;69.42
81686;BME280;71102;50.960;6.888;2023-08-20T08:59:44;101759.63;;;24.10;69.25
81686;BME280;71102;50.960;6.888;2023-08-20T09:02:10;101748.75;;;24.12;69.00
81686;BME280;71102;50.960;6.888;2023-08-20T09:04:42;101751.16;;;24.21;68.92
81686;BME280;71102;50.960;6.888;2023-08-20T09:07:12;101748.84;;;24.35;68.30
81686;BME280;71102;50.960;6.888;2023-08-20T09:09:42;101748.47;;;24.45;68.59
81686;BME280;71102;50.960;6.888;2023-08-20T09:12:14;101753.38;;;24.59;68.25
81686;BME280;71102;50.960;6.888;2023-08-20T09:14:43;101760.34;;;24.67;65.54
81686;BME280;71102;50.960;6.888;2023-08-20T09:17:11;101758.31;;;24.74;65.54
81686;BME280;71102;50.960;6.888;2023-08-20T09:19:37;101752.53;;;24.83;66.15
81686;BME280;71102;50.960;6.888;2023-08-20T09:22:02;101754.63;;;24.99;64.28
81686;BME280;71102;50.960;6.888;2023-08-20T09:24:39;101760.63;;;25.07;63.88
81686;BME280;71102;50.960;6.888;2023-08-20T09:27:05;101758.44;;;25.17;63.08
81686;BME280;71102;50.960;6.888;2023-08-20T09:29:47;101758.88;;;25.30;64.63
81686;BME280;71102;50.960;6.888;2023-08-20T09:32:19;101760.44;;;25.37;63.62
81686;BME280;71102;50.960;6.888;2023-08-20T09:34:45;101766.03;;;25.32;63.75
81686;BME280;71102;50.960;6.888;2023-08-20T09:37:13;101763.09;;;25.38;63.77
81686;BME280;71102;50.960;6.888;2023-08-20T09:39:39;101766.25;;;25.49;63.25
81686;BME280;71102;50.960;6.888;2023-08-20T09:42:05;101756.75;;;25.61;62.51
81686;BME280;71102;50.960;6.888;2023-08-20T09:44:35;101764.13;;;25.79;63.15
81686;BME280;71102;50.960;6.888;2023-08-20T09:47:08;101761.69;;;25.94;61.91
81686;BME280;71102;50.960;6.888;2023-08-20T09:49:42;101771.31;;;26.03;61.08
81686;BME280;71102;50.960;6.888;2023-08-20T09:52:09;101770.03;;;26.11;61.92
81686;BME280;71102;50.960;6.888;2023-08-20T09:54:44;101769.59;;;26.22;61.50
81686;BME280;71102;50.960;6.888;2023-08-20T09:57:14;101772.66;;;26.34;60.94
81686;BME280;71102;50.960;6.888;2023-08-20T09:59:45;101769.88;;;26.36;60.55
81686;BME280;71102;50.960;6.888;2023-08-20T10:02:13;101771.00;;;26.52;59.64
81686;BME280;71102;50.960;6.888;2023-08-20T10:04:39;101772.28;;;26.43;60.26
81686;BME280;71102;50.960;6.888;2023-08-20T10:07:05;101780.50;;;26.42;58.94
81686;BME280;71102;50.960;6.888;2023-08-20T10:09:30;101778.41;;;26.27;60.56
81686;BME280;71102;50.960;6.888;2023-08-20T10:11:56;101770.41;;;26.44;60.51
81686;BME280;71102;50.960;6.888;2023-08-20T10:14:21;101766.59;;;26.69;59.64
81686;BME280;71102;50.960;6.888;2023-08-20T10:16:47;101781.78;;;26.53;59.80
81686;BME280;71102;50.960;6.888;2023-08-20T10:19:15;101775.91;;;26.64;58.69
81686;BME280;71102;50.960;6.888;2023-08-20T10:21:44;101777.31;;;26.92;58.26
81686;BME280;71102;50.960;6.888;2023-08-20T10:24:10;101774.72;;;27.09;57.28
81686;BME280;71102;50.960;6.888;2023-08-20T10:26:35;101773.53;;;27.15;56.62
81686;BME280;71102;50.960;6.888;2023-08-20T10:29:38;101781.19;;;27.27;56.48
81686;BME280;71102;50.960;6.888;2023-08-20T10:32:11;101779.69;;;27.00;56.00
81686;BME280;71102;50.960;6.888;2023-08-20T10:34:38;101774.69;;;27.29;55.45
81686;BME280;71102;50.960;6.888;2023-08-20T10:37:14;101772.97;;;27.47;54.01
81686;BME280;71102;50.960;6.888;2023-08-20T10:39:39;101776.41;;;27.69;53.31
81686;BME280;71102;50.960;6.888;2023-08-20T10:42:29;101775.97;;;27.41;53.93
81686;BME280;71102;50.960;6.888;2023-08-20T10:47:22;101771.22;;;27.82;53.25
81686;BME280;71102;50.960;6.888;2023-08-20T10:49:52;101771.91;;;27.68;53.53
81686;BME280;71102;50.960;6.888;2023-08-20T10:52:18;101776.19;;;27.74;53.56
81686;BME280;71102;50.960;6.888;2023-08-20T10:54:44;101766.97;;;27.76;53.07
81686;BME280;71102;50.960;6.888;2023-08-20T10:57:09;101764.91;;;28.00;53.19
81686;BME280;71102;50.960;6.888;2023-08-20T10:59:39;101772.88;;;28.21;52.22
81686;BME280;71102;50.960;6.888;2023-08-20T11:02:09;101769.84;;;28.27;53.35
81686;BME280;71102;50.960;6.888;2023-08-20T11:04:36;101771.28;;;28.34;52.30
81686;BME280;71102;50.960;6.888;2023-08-20T11:07:02;101766.88;;;28.32;51.23
81686;BME280;71102;50.960;6.888;2023-08-20T11:09:28;101765.81;;;28.34;53.31
81686;BME280;71102;50.960;6.888;2023-08-20T11:11:55;101756.25;;;28.44;51.78
81686;BME280;71102;50.960;6.888;2023-08-20T11:14:21;101768.13;;;28.60;51.00
81686;BME280;71102;50.960;6.888;2023-08-20T11:16:47;101770.75;;;28.79;51.45
81686;BME280;71102;50.960;6.888;2023-08-20T11:19:13;101769.00;;;28.61;50.49
81686;BME280;71102;50.960;6.888;2023-08-20T11:21:40;101760.16;;;28.73;49.87
81686;BME280;71102;50.960;6.888;2023-08-20T11:24:07;101762.63;;;28.94;49.63
81686;BME280;71102;50.960;6.888;2023-08-20T11:26:34;101763.22;;;29.16;49.50
81686;BME280;71102;50.960;6.888;2023-08-20T11:29:00;101758.88;;;29.29;49.49
81686;BME280;71102;50.960;6.888;2023-08-20T11:31:25;101760.91;;;29.26;47.78
81686;BME280;71102;50.960;6.888;2023-08-20T11:33:51;101760.94;;;29.57;48.85
81686;BME280;71102;50.960;6.888;2023-08-20T11:36:17;101755.22;;;28.96;49.30
81686;BME280;71102;50.960;6.888;2023-08-20T11:38:50;101755.75;;;29.04;49.55
81686;BME280;71102;50.960;6.888;2023-08-20T11:41:15;101756.28;;;28.94;49.28
81686;BME280;71102;50.960;6.888;2023-08-20T11:43:41;101764.00;;;28.86;50.14
81686;BME280;71102;50.960;6.888;2023-08-20T11:46:13;101755.13;;;28.48;50.44
81686;BME280;71102;50.960;6.888;2023-08-20T11:48:38;101754.75;;;28.88;49.71
81686;BME280;71102;50.960;6.888;2023-08-20T11:51:04;101751.88;;;28.91;48.82
81686;BME280;71102;50.960;6.888;2023-08-20T11:53:29;101752.72;;;29.41;48.21
81686;BME280;71102;50.960;6.888;2023-08-20T11:55:55;101756.47;;;29.87;46.14
81686;BME280;71102;50.960;6.888;2023-08-20T11:58:20;101753.63;;;30.04;45.21
81686;BME280;71102;50.960;6.888;2023-08-20T12:00:48;101742.34;;;29.79;45.31
81686;BME280;71102;50.960;6.888;2023-08-20T12:03:14;101754.50;;;30.20;45.66
81686;BME280;71102;50.960;6.888;2023-08-20T12:05:41;101741.31;;;30.42;43.83
81686;BME280;71102;50.960;6.888;2023-08-20T12:08:06;101750.25;;;30.15;43.51
81686;BME280;71102;50.960;6.888;2023-08-20T12:10:32;101750.00;;;30.19;43.39
81686;BME280;71102;50.960;6.888;2023-08-20T12:12:58;101739.91;;;30.65;43.55
81686;BME280;71102;50.960;6.888;2023-08-20T12:15:24;101740.19;;;31.04;41.49
81686;BME280;71102;50.960;6.888;2023-08-20T12:18:01;101731.88;;;31.33;42.57
81686;BME280;71102;50.960;6.888;2023-08-20T12:20:28;101728.66;;;31.27;41.91
81686;BME280;71102;50.960;6.888;2023-08-20T12:22:54;101735.66;;;31.17;42.09
81686;BME280;71102;50.960;6.888;2023-08-20T12:25:19;101735.25;;;31.65;40.76
81686;BME280;71102;50.960;6.888;2023-08-20T12:27:45;101736.81;;;31.83;40.58
81686;BME280;71102;50.960;6.888;2023-08-20T12:30:10;101725.41;;;31.75;40.86
81686;BME280;71102;50.960;6.888;2023-08-20T12:32:36;101727.16;;;32.43;39.25
81686;BME280;71102;50.960;6.888;2023-08-20T12:35:01;101740.09;;;33.05;38.20
81686;BME280;71102;50.960;6.888;2023-08-20T12:37:27;101743.34;;;39.64;27.00
81686;BME280;71102;50.960;6.888;2023-08-20T12:39:52;101740.50;;;43.27;21.23
81686;BME280;71102;50.960;6.888;2023-08-20T12:42:17;101739.16;;;44.38;19.38
81686;BME280;71102;50.960;6.888;2023-08-20T12:44:43;101737.75;;;45.31;18.65
81686;BME280;71102;50.960;6.888;2023-08-20T12:47:08;101727.41;;;43.90;20.49
81686;BME280;71102;50.960;6.888;2023-08-20T12:49:33;101736.09;;;46.93;16.71
81686;BME280;71102;50.960;6.888;2023-08-20T12:51:59;101730.94;;;48.79;14.62
81686;BME280;71102;50.960;6.888;2023-08-20T12:54:24;101728.50;;;49.48;14.21
81686;BME280;71102;50.960;6.888;2023-08-20T12:56:49;101736.00;;;49.73;13.90